sensor_id;sensor_type;location;lat;lon;timestamp;pressure;altitude;pressure_sealevel;temperature;humidity
46756;BME280;32506;52.826;-1.192;2022-11-20T00:00:40;100427.91;;;7.73;69.31
46756;BME280;32506;52.826;-1.192;2022-11-20T00:03:05;100432.38;;;7.73;69.77
46756;BME280;32506;52.826;-1.192;2022-11-20T00:05:32;100425.25;;;7.73;69.70
46756;BME280;32506;52.826;-1.192;2022-11-20T00:07:57;100419.28;;;7.71;69.74
46756;BME280;32506;52.826;-1.192;2022-11-20T00:10:23;100421.94;;;7.71;69.91
46756;BME280;32506;52.826;-1.192;2022-11-20T00:12:48;100417.66;;;7.70;69.77
46756;BME280;32506;52.826;-1.192;2022-11-20T00:15:14;100411.50;;;7.70;69.48
46756;BME280;32506;52.826;-1.192;2022-11-20T00:17:39;100416.84;;;7.70;69.67
46756;BME280;32506;52.826;-1.192;2022-11-20T00:20:05;100411.50;;;7.70;69.85
46756;BME280;32506;52.826;-1.192;2022-11-20T00:22:30;100409.06;;;7.68;69.76
46756;BME280;32506;52.826;-1.192;2022-11-20T00:24:56;100403.75;;;7.68;69.90
46756;BME280;32506;52.826;-1.192;2022-11-20T00:27:23;100401.28;;;7.67;69.46
46756;BME280;32506;52.826;-1.192;2022-11-20T00:29:48;100387.97;;;7.67;69.93
46756;BME280;32506;52.826;-1.192;2022-11-20T00:32:14;100390.63;;;7.67;69.43
46756;BME280;32506;52.826;-1.192;2022-11-20T00:34:39;100383.66;;;7.66;69.61
46756;BME280;32506;52.826;-1.192;2022-11-20T00:37:04;100383.66;;;7.66;69.93
46756;BME280;32506;52.826;-1.192;2022-11-20T00:39:30;100381.81;;;7.66;69.61
46756;BME280;32506;52.826;-1.192;2022-11-20T00:41:55;100369.72;;;7.64;69.80
46756;BME280;32506;52.826;-1.192;2022-11-20T00:44:21;100375.06;;;7.64;69.91
46756;BME280;32506;52.826;-1.192;2022-11-20T00:46:46;100365.47;;;7.63;69.92
46756;BME280;32506;52.826;-1.192;2022-11-20T00:49:11;100362.78;;;7.63;69.85
46756;BME280;32506;52.826;-1.192;2022-11-20T00:51:37;100368.13;;;7.63;69.66
46756;BME280;32506;52.826;-1.192;2022-11-20T00:54:02;100357.66;;;7.61;69.77
46756;BME280;32506;52.826;-1.192;2022-11-20T00:56:28;100359.50;;;7.61;69.60
46756;BME280;32506;52.826;-1.192;2022-11-20T00:58:54;100351.53;;;7.61;69.51
46756;BME280;32506;52.826;-1.192;2022-11-20T01:01:21;100341.09;;;7.59;69.59
46756;BME280;32506;52.826;-1.192;2022-11-20T01:03:50;100349.88;;;7.60;69.90
46756;BME280;32506;52.826;-1.192;2022-11-20T01:06:24;100335.75;;;7.59;69.61
46756;BME280;32506;52.826;-1.192;2022-11-20T01:08:54;100339.22;;;7.60;69.76
46756;BME280;32506;52.826;-1.192;2022-11-20T01:11:23;100334.13;;;7.58;69.78
46756;BME280;32506;52.826;-1.192;2022-11-20T01:13:50;100322.66;;;7.58;69.82
46756;BME280;32506;52.826;-1.192;2022-11-20T01:16:21;100321.84;;;7.57;69.92
46756;BME280;32506;52.826;-1.192;2022-11-20T01:18:49;100313.03;;;7.56;70.11
46756;BME280;32506;52.826;-1.192;2022-11-20T01:21:20;100315.50;;;7.58;69.51
46756;BME280;32506;52.826;-1.192;2022-11-20T01:23:47;100317.56;;;7.56;69.51
46756;BME280;32506;52.826;-1.192;2022-11-20T01:26:15;100306.91;;;7.56;69.74
46756;BME280;32506;52.826;-1.192;2022-11-20T01:28:42;100307.94;;;7.55;69.96
46756;BME280;32506;52.826;-1.192;2022-11-20T01:31:18;100300.75;;;7.55;69.74
46756;BME280;32506;52.826;-1.192;2022-11-20T01:33:45;100299.94;;;7.55;70.08
46756;BME280;32506;52.826;-1.192;2022-11-20T01:36:12;100300.16;;;7.53;69.72
46756;BME280;32506;52.826;-1.192;2022-11-20T01:38:38;100295.66;;;7.54;69.67
46756;BME280;32506;52.826;-1.192;2022-11-20T01:41:04;100297.50;;;7.53;69.68
46756;BME280;32506;52.826;-1.192;2022-11-20T01:43:30;100289.50;;;7.53;69.47
46756;BME280;32506;52.826;-1.192;2022-11-20T01:46:15;100284.00;;;7.55;69.91
46756;BME280;32506;52.826;-1.192;2022-11-20T01:51:19;100261.28;;;7.52;69.80
46756;BME280;32506;52.826;-1.192;2022-11-20T01:53:46;100260.44;;;7.52;70.09
46756;BME280;32506;52.826;-1.192;2022-11-20T01:56:13;100252.47;;;7.52;69.54
46756;BME280;32506;52.826;-1.192;2022-11-20T01:58:43;100255.13;;;7.52;69.79
46756;BME280;32506;52.826;-1.192;2022-11-20T02:01:13;100256.16;;;7.51;69.80
46756;BME280;32506;52.826;-1.192;2022-11-20T02:03:39;100261.47;;;7.51;70.26
46756;BME280;32506;52.826;-1.192;2022-11-20T02:06:19;100248.19;;;7.51;69.75
46756;BME280;32506;52.826;-1.192;2022-11-20T02:08:48;100244.69;;;7.50;69.57
46756;BME280;32506;52.826;-1.192;2022-11-20T02:11:13;100243.88;;;7.50;69.72
46756;BME280;32506;52.826;-1.192;2022-11-20T02:13:39;100249.19;;;7.50;69.55
46756;BME280;32506;52.826;-1.192;2022-11-20T02:18:42;100240.59;;;7.48;69.58
46756;BME280;32506;52.826;-1.192;2022-11-20T02:21:43;100245.72;;;7.49;70.00
46756;BME280;32506;52.826;-1.192;2022-11-20T02:24:15;100233.66;;;7.47;69.62
46756;BME280;32506;52.826;-1.192;2022-11-20T02:29:17;100229.16;;;7.47;69.65
46756;BME280;32506;52.826;-1.192;2022-11-20T02:31:45;100229.16;;;7.47;70.07
46756;BME280;32506;52.826;-1.192;2022-11-20T02:34:10;100222.19;;;7.46;69.61
46756;BME280;32506;52.826;-1.192;2022-11-20T02:36:38;100217.69;;;7.47;69.57
46756;BME280;32506;52.826;-1.192;2022-11-20T02:39:05;100211.53;;;7.46;69.87
46756;BME280;32506;52.826;-1.192;2022-11-20T02:41:35;100216.84;;;7.46;70.00
46756;BME280;32506;52.826;-1.192;2022-11-20T02:44:03;100201.13;;;7.45;69.58
46756;BME280;32506;52.826;-1.192;2022-11-20T02:46:29;100206.44;;;7.45;69.93
46756;BME280;32506;52.826;-1.192;2022-11-20T02:48:55;100197.44;;;7.46;70.09
46756;BME280;32506;52.826;-1.192;2022-11-20T02:51:20;100191.28;;;7.45;69.62
46756;BME280;32506;52.826;-1.192;2022-11-20T02:53:46;100184.16;;;7.46;69.89
46756;BME280;32506;52.826;-1.192;2022-11-20T02:56:11;100176.38;;;7.44;69.93
46756;BME280;32506;52.826;-1.192;2022-11-20T02:58:37;100169.19;;;7.45;69.78
46756;BME280;32506;52.826;-1.192;2022-11-20T03:01:02;100169.19;;;7.45;69.78
46756;BME280;32506;52.826;-1.192;2022-11-20T03:03:28;100161.22;;;7.45;69.63
46756;BME280;32506;52.826;-1.192;2022-11-20T03:05:53;100147.94;;;7.45;70.18
46756;BME280;32506;52.826;-1.192;2022-11-20T03:08:19;100146.28;;;7.44;69.66
46756;BME280;32506;52.826;-1.192;2022-11-20T03:10:44;100146.28;;;7.44;70.29
46756;BME280;32506;52.826;-1.192;2022-11-20T03:13:09;100142.63;;;7.45;70.25
46756;BME280;32506;52.826;-1.192;2022-11-20T03:15:36;100136.50;;;7.44;69.88
46756;BME280;32506;52.826;-1.192;2022-11-20T03:18:02;100133.84;;;7.44;70.08
46756;BME280;32506;52.826;-1.192;2022-11-20T03:20:28;100132.19;;;7.43;69.92
46756;BME280;32506;52.826;-1.192;2022-11-20T03:22:53;100124.22;;;7.43;69.81
46756;BME280;32506;52.826;-1.192;2022-11-20T03:25:19;100115.44;;;7.43;69.66
46756;BME280;32506;52.826;-1.192;2022-11-20T03:27:44;100105.81;;;7.42;69.97
46756;BME280;32506;52.826;-1.192;2022-11-20T03:30:10;100094.34;;;7.41;70.37
46756;BME280;32506;52.826;-1.192;2022-11-20T03:32:36;100100.50;;;7.42;70.16
46756;BME280;32506;52.826;-1.192;2022-11-20T03:35:01;100094.34;;;7.41;70.21
46756;BME280;32506;52.826;-1.192;2022-11-20T03:37:27;100089.84;;;7.42;70.06
46756;BME280;32506;52.826;-1.192;2022-11-20T03:39:52;100081.88;;;7.42;70.02
46756;BME280;32506;52.826;-1.192;2022-11-20T03:42:17;100081.03;;;7.41;70.20
46756;BME280;32506;52.826;-1.192;2022-11-20T03:45:01;100066.94;;;7.41;70.13
46756;BME280;32506;52.826;-1.192;2022-11-20T03:47:27;100060.81;;;7.40;70.11
46756;BME280;32506;52.826;-1.192;2022-11-20T03:49:52;100056.31;;;7.41;70.11
46756;BME280;32506;52.826;-1.192;2022-11-20T03:52:18;100057.31;;;7.39;70.45
46756;BME280;32506;52.826;-1.192;2022-11-20T03:54:43;100039.72;;;7.38;70.07
46756;BME280;32506;52.826;-1.192;2022-11-20T03:57:08;100045.88;;;7.39;70.07
46756;BME280;32506;52.826;-1.192;2022-11-20T03:59:34;100030.13;;;7.37;70.09
46756;BME280;32506;52.826;-1.192;2022-11-20T04:01:59;100027.47;;;7.37;70.57
46756;BME280;32506;52.826;-1.192;2022-11-20T04:04:25;100017.66;;;7.38;70.28
46756;BME280;32506;52.826;-1.192;2022-11-20T04:06:50;100021.13;;;7.38;70.42
46756;BME280;32506;52.826;-1.192;2022-11-20T04:09:15;100014.19;;;7.37;70.24
46756;BME280;32506;52.826;-1.192;2022-11-20T04:11:41;100021.31;;;7.37;70.66
46756;BME280;32506;52.826;-1.192;2022-11-20T04:14:13;100013.34;;;7.37;70.77
46756;BME280;32506;52.826;-1.192;2022-11-20T04:16:38;100008.88;;;7.37;70.27
46756;BME280;32506;52.826;-1.192;2022-11-20T04:19:08;99998.44;;;7.36;70.78
46756;BME280;32506;52.826;-1.192;2022-11-20T04:21:34;100001.91;;;7.36;70.68
46756;BME280;32506;52.826;-1.192;2022-11-20T04:24:00;99992.28;;;7.35;70.94
46756;BME280;32506;52.826;-1.192;2022-11-20T04:26:27;99986.16;;;7.35;70.98
46756;BME280;32506;52.826;-1.192;2022-11-20T04:28:52;99983.31;;;7.36;71.02
46756;BME280;32506;52.826;-1.192;2022-11-20T04:31:21;99980.63;;;7.36;71.14
46756;BME280;32506;52.826;-1.192;2022-11-20T04:33:47;99980.63;;;7.36;71.18
46756;BME280;32506;52.826;-1.192;2022-11-20T04:36:17;99971.84;;;7.36;70.65
46756;BME280;32506;52.826;-1.192;2022-11-20T04:38:43;99961.22;;;7.36;71.24
46756;BME280;32506;52.826;-1.192;2022-11-20T04:41:18;99955.91;;;7.36;70.65
46756;BME280;32506;52.826;-1.192;2022-11-20T04:43:47;99960.19;;;7.37;71.08
46756;BME280;32506;52.826;-1.192;2022-11-20T04:46:19;99956.72;;;7.36;71.17
46756;BME280;32506;52.826;-1.192;2022-11-20T04:48:46;99952.19;;;7.37;70.97
46756;BME280;32506;52.826;-1.192;2022-11-20T04:51:12;99958.34;;;7.37;70.83
46756;BME280;32506;52.826;-1.192;2022-11-20T04:53:38;99962.84;;;7.37;71.54
46756;BME280;32506;52.826;-1.192;2022-11-20T04:56:06;99963.03;;;7.35;71.28
46756;BME280;32506;52.826;-1.192;2022-11-20T04:58:33;99951.59;;;7.35;70.92
46756;BME280;32506;52.826;-1.192;2022-11-20T05:01:11;99938.91;;;7.37;71.23
46756;BME280;32506;52.826;-1.192;2022-11-20T05:03:38;99942.63;;;7.36;71.32
46756;BME280;32506;52.826;-1.192;2022-11-20T05:06:05;99947.94;;;7.36;71.17
46756;BME280;32506;52.826;-1.192;2022-11-20T05:08:31;99947.09;;;7.35;71.31
46756;BME280;32506;52.826;-1.192;2022-11-20T05:11:07;99958.56;;;7.36;71.05
46756;BME280;32506;52.826;-1.192;2022-11-20T05:13:33;99952.41;;;7.35;71.29
46756;BME280;32506;52.826;-1.192;2022-11-20T05:16:06;99950.59;;;7.36;71.29
46756;BME280;32506;52.826;-1.192;2022-11-20T05:18:33;99947.09;;;7.35;71.16
46756;BME280;32506;52.826;-1.192;2022-11-20T05:20:59;99945.28;;;7.36;71.25
46756;BME280;32506;52.826;-1.192;2022-11-20T05:23:26;99945.28;;;7.36;71.19
46756;BME280;32506;52.826;-1.192;2022-11-20T05:25:53;99948.75;;;7.36;70.98
46756;BME280;32506;52.826;-1.192;2022-11-20T05:28:19;99943.41;;;7.36;71.15
46756;BME280;32506;52.826;-1.192;2022-11-20T05:30:44;99943.41;;;7.36;71.26
46756;BME280;32506;52.826;-1.192;2022-11-20T05:33:10;99945.88;;;7.38;71.17
46756;BME280;32506;52.826;-1.192;2022-11-20T05:35:35;99947.72;;;7.37;71.51
46756;BME280;32506;52.826;-1.192;2022-11-20T05:38:01;99937.09;;;7.37;71.62
46756;BME280;32506;52.826;-1.192;2022-11-20T05:40:26;99945.66;;;7.39;71.75
46756;BME280;32506;52.826;-1.192;2022-11-20T05:42:51;99937.91;;;7.38;71.70
46756;BME280;32506;52.826;-1.192;2022-11-20T05:45:17;99941.34;;;7.38;71.71
46756;BME280;32506;52.826;-1.192;2022-11-20T05:47:42;99936.25;;;7.37;71.87
46756;BME280;32506;52.826;-1.192;2022-11-20T05:50:08;99935.03;;;7.39;71.68
46756;BME280;32506;52.826;-1.192;2022-11-20T05:52:33;99934.22;;;7.39;72.07
46756;BME280;32506;52.826;-1.192;2022-11-20T05:54:58;99935.84;;;7.40;71.87
46756;BME280;32506;52.826;-1.192;2022-11-20T05:57:24;99934.00;;;7.41;71.88
46756;BME280;32506;52.826;-1.192;2022-11-20T05:59:50;99928.69;;;7.41;71.83
46756;BME280;32506;52.826;-1.192;2022-11-20T06:02:15;99930.34;;;7.42;72.36
46756;BME280;32506;52.826;-1.192;2022-11-20T06:04:41;99923.16;;;7.42;72.12
46756;BME280;32506;52.826;-1.192;2022-11-20T06:07:06;99923.16;;;7.42;72.10
46756;BME280;32506;52.826;-1.192;2022-11-20T06:09:32;99926.66;;;7.43;71.99
46756;BME280;32506;52.826;-1.192;2022-11-20T06:11:57;99917.63;;;7.44;72.42
46756;BME280;32506;52.826;-1.192;2022-11-20T06:14:23;99917.63;;;7.44;71.70
46756;BME280;32506;52.826;-1.192;2022-11-20T06:16:48;99912.31;;;7.44;71.79
46756;BME280;32506;52.826;-1.192;2022-11-20T06:19:13;99909.44;;;7.45;72.03
46756;BME280;32506;52.826;-1.192;2022-11-20T06:21:40;99904.13;;;7.45;71.59
46756;BME280;32506;52.826;-1.192;2022-11-20T06:24:05;99912.09;;;7.45;71.93
46756;BME280;32506;52.826;-1.192;2022-11-20T06:26:31;99905.75;;;7.46;71.21
46756;BME280;32506;52.826;-1.192;2022-11-20T06:28:56;99898.63;;;7.47;71.35
46756;BME280;32506;52.826;-1.192;2022-11-20T06:31:24;99901.28;;;7.47;71.35
46756;BME280;32506;52.826;-1.192;2022-11-20T06:33:50;99904.75;;;7.47;71.44
46756;BME280;32506;52.826;-1.192;2022-11-20T06:36:18;99907.19;;;7.49;71.67
46756;BME280;32506;52.826;-1.192;2022-11-20T06:38:44;99909.84;;;7.49;71.84
46756;BME280;32506;52.826;-1.192;2022-11-20T06:41:12;99918.66;;;7.49;71.89
46756;BME280;32506;52.826;-1.192;2022-11-20T06:43:38;99914.16;;;7.50;70.98
46756;BME280;32506;52.826;-1.192;2022-11-20T06:46:04;99906.97;;;7.50;71.38
46756;BME280;32506;52.826;-1.192;2022-11-20T06:48:29;99915.56;;;7.52;71.21
46756;BME280;32506;52.826;-1.192;2022-11-20T06:50:57;99912.91;;;7.52;71.08
46756;BME280;32506;52.826;-1.192;2022-11-20T06:53:24;99917.41;;;7.52;71.52
46756;BME280;32506;52.826;-1.192;2022-11-20T06:55:50;99924.34;;;7.53;70.97
46756;BME280;32506;52.826;-1.192;2022-11-20T06:58:17;99924.16;;;7.54;71.15
46756;BME280;32506;52.826;-1.192;2022-11-20T07:00:43;99918.03;;;7.54;71.54
46756;BME280;32506;52.826;-1.192;2022-11-20T07:03:10;99914.56;;;7.53;71.33
46756;BME280;32506;52.826;-1.192;2022-11-20T07:05:36;99914.34;;;7.55;70.98
46756;BME280;32506;52.826;-1.192;2022-11-20T07:08:04;99913.31;;;7.56;71.29
46756;BME280;32506;52.826;-1.192;2022-11-20T07:10:30;99912.50;;;7.55;70.81
46756;BME280;32506;52.826;-1.192;2022-11-20T07:12:55;99910.44;;;7.58;71.54
46756;BME280;32506;52.826;-1.192;2022-11-20T07:15:23;99922.91;;;7.57;71.16
46756;BME280;32506;52.826;-1.192;2022-11-20T07:17:49;99924.56;;;7.58;71.14
46756;BME280;32506;52.826;-1.192;2022-11-20T07:20:15;99936.22;;;7.57;71.31
46756;BME280;32506;52.826;-1.192;2022-11-20T07:22:40;99937.84;;;7.58;71.14
46756;BME280;32506;52.826;-1.192;2022-11-20T07:25:07;99939.69;;;7.58;71.07
46756;BME280;32506;52.826;-1.192;2022-11-20T07:27:33;99943.16;;;7.58;70.99
46756;BME280;32506;52.826;-1.192;2022-11-20T07:29:58;99943.38;;;7.56;71.15
46756;BME280;32506;52.826;-1.192;2022-11-20T07:32:24;99948.69;;;7.56;71.21
46756;BME280;32506;52.826;-1.192;2022-11-20T07:34:50;99944.41;;;7.55;70.60
46756;BME280;32506;52.826;-1.192;2022-11-20T07:37:15;99939.28;;;7.54;70.97
46756;BME280;32506;52.826;-1.192;2022-11-20T07:39:41;99935.81;;;7.53;70.77
46756;BME280;32506;52.826;-1.192;2022-11-20T07:42:07;99936.00;;;7.52;70.77
46756;BME280;32506;52.826;-1.192;2022-11-20T07:44:33;99938.88;;;7.50;70.76
46756;BME280;32506;52.826;-1.192;2022-11-20T07:46:59;99935.41;;;7.50;70.61
46756;BME280;32506;52.826;-1.192;2022-11-20T07:49:24;99942.59;;;7.49;70.73
46756;BME280;32506;52.826;-1.192;2022-11-20T07:51:51;99944.63;;;7.47;70.82
46756;BME280;32506;52.826;-1.192;2022-11-20T07:54:18;99944.63;;;7.47;70.18
46756;BME280;32506;52.826;-1.192;2022-11-20T07:56:43;99956.28;;;7.46;70.46
46756;BME280;32506;52.826;-1.192;2022-11-20T07:59:09;99953.84;;;7.45;70.62
46756;BME280;32506;52.826;-1.192;2022-11-20T08:01:37;99954.63;;;7.45;70.45
46756;BME280;32506;52.826;-1.192;2022-11-20T08:04:02;99961.81;;;7.45;69.96
46756;BME280;32506;52.826;-1.192;2022-11-20T08:06:28;99964.47;;;7.45;70.54
46756;BME280;32506;52.826;-1.192;2022-11-20T08:08:54;99973.47;;;7.44;70.47
46756;BME280;32506;52.826;-1.192;2022-11-20T08:11:19;99973.47;;;7.44;70.51
46756;BME280;32506;52.826;-1.192;2022-11-20T08:14:03;99975.31;;;7.43;70.13
46756;BME280;32506;52.826;-1.192;2022-11-20T08:16:48;99968.34;;;7.42;70.49
46756;BME280;32506;52.826;-1.192;2022-11-20T08:19:16;99973.66;;;7.42;69.99
46756;BME280;32506;52.826;-1.192;2022-11-20T08:21:41;99974.50;;;7.43;70.74
46756;BME280;32506;52.826;-1.192;2022-11-20T08:24:08;99982.50;;;7.43;70.49
46756;BME280;32506;52.826;-1.192;2022-11-20T08:26:34;99978.78;;;7.44;70.67
46756;BME280;32506;52.826;-1.192;2022-11-20T08:29:00;99987.59;;;7.44;70.58
46756;BME280;32506;52.826;-1.192;2022-11-20T08:31:26;99994.53;;;7.45;70.67
46756;BME280;32506;52.826;-1.192;2022-11-20T08:33:52;99991.69;;;7.47;70.15
46756;BME280;32506;52.826;-1.192;2022-11-20T08:36:19;99991.88;;;7.45;70.36
46756;BME280;32506;52.826;-1.192;2022-11-20T08:38:49;99985.53;;;7.46;70.83
46756;BME280;32506;52.826;-1.192;2022-11-20T08:41:15;99981.84;;;7.47;70.91
46756;BME280;32506;52.826;-1.192;2022-11-20T08:43:54;99988.81;;;7.48;70.69
46756;BME280;32506;52.826;-1.192;2022-11-20T08:46:20;99984.31;;;7.49;70.70
46756;BME280;32506;52.826;-1.192;2022-11-20T08:48:46;99986.75;;;7.50;70.60
46756;BME280;32506;52.826;-1.192;2022-11-20T08:51:11;99982.25;;;7.51;70.29
46756;BME280;32506;52.826;-1.192;2022-11-20T08:53:38;99990.84;;;7.53;70.61
46756;BME280;32506;52.826;-1.192;2022-11-20T08:56:04;99994.34;;;7.53;70.41
46756;BME280;32506;52.826;-1.192;2022-11-20T08:58:29;99994.13;;;7.55;70.66
46756;BME280;32506;52.826;-1.192;2022-11-20T09:00:54;99998.22;;;7.58;70.02
46756;BME280;32506;52.826;-1.192;2022-11-20T09:03:20;100003.31;;;7.59;70.19
46756;BME280;32506;52.826;-1.192;2022-11-20T09:05:45;99997.78;;;7.61;70.16
46756;BME280;32506;52.826;-1.192;2022-11-20T09:08:11;99994.09;;;7.62;70.30
46756;BME280;32506;52.826;-1.192;2022-11-20T09:10:36;100009.06;;;7.63;70.05
46756;BME280;32506;52.826;-1.192;2022-11-20T09:13:04;100005.34;;;7.64;70.50
46756;BME280;32506;52.826;-1.192;2022-11-20T09:15:30;100012.31;;;7.65;70.39
46756;BME280;32506;52.826;-1.192;2022-11-20T09:17:57;100013.72;;;7.67;69.73
46756;BME280;32506;52.826;-1.192;2022-11-20T09:20:24;100018.84;;;7.69;70.34
46756;BME280;32506;52.826;-1.192;2022-11-20T09:22:50;100012.50;;;7.70;70.13
46756;BME280;32506;52.826;-1.192;2022-11-20T09:25:15;100015.75;;;7.72;70.34
46756;BME280;32506;52.826;-1.192;2022-11-20T09:27:41;100013.72;;;7.74;70.12
46756;BME280;32506;52.826;-1.192;2022-11-20T09:30:09;100013.28;;;7.77;69.85
46756;BME280;32506;52.826;-1.192;2022-11-20T09:32:34;100019.84;;;7.81;70.69
46756;BME280;32506;52.826;-1.192;2022-11-20T09:35:01;100024.75;;;7.84;70.55
46756;BME280;32506;52.826;-1.192;2022-11-20T09:37:26;100017.16;;;7.88;70.52
46756;BME280;32506;52.826;-1.192;2022-11-20T09:39:51;100023.69;;;7.92;71.00
46756;BME280;32506;52.826;-1.192;2022-11-20T09:45:15;100012.00;;;8.00;70.78
46756;BME280;32506;52.826;-1.192;2022-11-20T09:55:45;100019.16;;;8.13;70.80
46756;BME280;32506;52.826;-1.192;2022-11-20T09:58:27;100025.69;;;8.17;71.07
46756;BME280;32506;52.826;-1.192;2022-11-20T10:00:56;100026.91;;;8.21;71.21
46756;BME280;32506;52.826;-1.192;2022-11-20T10:04:15;100027.88;;;8.27;71.21
46756;BME280;32506;52.826;-1.192;2022-11-20T10:09:40;100016.41;;;8.33;71.25
46756;BME280;32506;52.826;-1.192;2022-11-20T10:25:39;100026.56;;;8.56;71.31
46756;BME280;32506;52.826;-1.192;2022-11-20T10:31:00;100020.81;;;8.59;71.17
46756;BME280;32506;52.826;-1.192;2022-11-20T10:33:31;100028.16;;;8.64;70.90
46756;BME280;32506;52.826;-1.192;2022-11-20T10:36:17;100029.16;;;8.69;71.31
46756;BME280;32506;52.826;-1.192;2022-11-20T10:41:43;100018.81;;;8.86;71.31
46756;BME280;32506;52.826;-1.192;2022-11-20T10:44:16;100027.75;;;8.99;71.40
46756;BME280;32506;52.826;-1.192;2022-11-20T10:47:05;100034.97;;;9.17;71.89
46756;BME280;32506;52.826;-1.192;2022-11-20T10:49:32;100028.91;;;9.35;71.59
46756;BME280;32506;52.826;-1.192;2022-11-20T10:52:09;100012.97;;;9.53;71.42
46756;BME280;32506;52.826;-1.192;2022-11-20T11:00:07;100010.97;;;10.23;71.20
46756;BME280;32506;52.826;-1.192;2022-11-20T11:02:47;100008.06;;;10.43;71.23
46756;BME280;32506;52.826;-1.192;2022-11-20T11:07:49;100004.28;;;10.81;71.14
46756;BME280;32506;52.826;-1.192;2022-11-20T11:10:18;100011.53;;;11.04;71.17
46756;BME280;32506;52.826;-1.192;2022-11-20T11:12:45;100004.94;;;11.31;71.29
46756;BME280;32506;52.826;-1.192;2022-11-20T11:15:25;100000.16;;;11.56;70.60
46756;BME280;32506;52.826;-1.192;2022-11-20T11:17:51;100003.53;;;11.75;70.63
46756;BME280;32506;52.826;-1.192;2022-11-20T11:20:19;100001.41;;;11.89;70.08
46756;BME280;32506;52.826;-1.192;2022-11-20T11:22:51;100001.66;;;12.00;70.17
46756;BME280;32506;52.826;-1.192;2022-11-20T11:25:31;99988.47;;;12.10;69.98
46756;BME280;32506;52.826;-1.192;2022-11-20T11:30:44;99989.44;;;12.62;69.84
46756;BME280;32506;52.826;-1.192;2022-11-20T11:33:23;99993.63;;;13.03;69.35
46756;BME280;32506;52.826;-1.192;2022-11-20T11:35:51;99987.88;;;13.46;68.56
46756;BME280;32506;52.826;-1.192;2022-11-20T11:40:58;99988.47;;;14.36;67.12
46756;BME280;32506;52.826;-1.192;2022-11-20T11:43:26;99984.53;;;14.71;66.75
46756;BME280;32506;52.826;-1.192;2022-11-20T11:48:59;99991.44;;;15.65;65.10
46756;BME280;32506;52.826;-1.192;2022-11-20T11:52:14;99988.97;;;16.11;64.40
46756;BME280;32506;52.826;-1.192;2022-11-20T11:54:17;99989.66;;;16.70;62.87
46756;BME280;32506;52.826;-1.192;2022-11-20T11:56:44;99987.81;;;17.22;61.92
46756;BME280;32506;52.826;-1.192;2022-11-20T11:59:17;99975.28;;;17.72;61.27
46756;BME280;32506;52.826;-1.192;2022-11-20T12:01:55;99983.50;;;18.22;59.68
46756;BME280;32506;52.826;-1.192;2022-11-20T12:07:01;99971.53;;;19.13;57.73
46756;BME280;32506;52.826;-1.192;2022-11-20T12:09:43;99977.06;;;19.56;57.75
46756;BME280;32506;52.826;-1.192;2022-11-20T12:12:20;99972.56;;;19.95;56.71
46756;BME280;32506;52.826;-1.192;2022-11-20T12:14:48;99974.81;;;20.12;56.16
46756;BME280;32506;52.826;-1.192;2022-11-20T12:17:16;99978.25;;;20.18;56.87
46756;BME280;32506;52.826;-1.192;2022-11-20T12:19:43;99968.13;;;20.04;56.36
46756;BME280;32506;52.826;-1.192;2022-11-20T12:22:39;99976.66;;;19.92;56.93
46756;BME280;32506;52.826;-1.192;2022-11-20T12:25:18;99969.78;;;19.81;57.28
46756;BME280;32506;52.826;-1.192;2022-11-20T12:30:40;99971.97;;;19.50;57.62
46756;BME280;32506;52.826;-1.192;2022-11-20T12:33:40;99966.19;;;19.32;58.21
46756;BME280;32506;52.826;-1.192;2022-11-20T12:38:51;99961.47;;;18.84;59.60
46756;BME280;32506;52.826;-1.192;2022-11-20T12:50:02;99982.06;;;18.35;60.45
46756;BME280;32506;52.826;-1.192;2022-11-20T12:52:53;99981.75;;;18.47;60.20
46756;BME280;32506;52.826;-1.192;2022-11-20T13:00:25;99985.31;;;19.17;58.91
46756;BME280;32506;52.826;-1.192;2022-11-20T13:08:15;99978.69;;;19.82;57.59
46756;BME280;32506;52.826;-1.192;2022-11-20T13:10:51;99963.47;;;19.86;58.06
46756;BME280;32506;52.826;-1.192;2022-11-20T13:13:41;99975.47;;;19.79;58.16
46756;BME280;32506;52.826;-1.192;2022-11-20T13:18:56;99970.09;;;19.50;58.97
46756;BME280;32506;52.826;-1.192;2022-11-20T13:21:55;99961.25;;;19.39;58.85
46756;BME280;32506;52.826;-1.192;2022-11-20T13:24:21;99960.28;;;19.30;59.07
46756;BME280;32506;52.826;-1.192;2022-11-20T13:27:00;99968.78;;;19.18;58.75
46756;BME280;32506;52.826;-1.192;2022-11-20T13:29:26;99960.25;;;19.01;58.91
46756;BME280;32506;52.826;-1.192;2022-11-20T13:32:17;99962.53;;;18.83;59.14
46756;BME280;32506;52.826;-1.192;2022-11-20T13:37:33;99969.50;;;18.60;58.06
46756;BME280;32506;52.826;-1.192;2022-11-20T13:42:51;99979.97;;;18.27;57.47
46756;BME280;32506;52.826;-1.192;2022-11-20T13:45:32;99996.56;;;18.05;57.56
46756;BME280;32506;52.826;-1.192;2022-11-20T13:48:03;99994.44;;;17.86;56.94
46756;BME280;32506;52.826;-1.192;2022-11-20T14:01:57;99961.34;;;16.88;57.64
46756;BME280;32506;52.826;-1.192;2022-11-20T14:04:35;99952.19;;;16.73;57.84
46756;BME280;32506;52.826;-1.192;2022-11-20T14:07:05;99950.28;;;16.58;58.15
46756;BME280;32506;52.826;-1.192;2022-11-20T14:09:33;99952.66;;;16.44;58.87
46756;BME280;32506;52.826;-1.192;2022-11-20T14:11:59;99956.72;;;16.32;59.20
46756;BME280;32506;52.826;-1.192;2022-11-20T14:14:30;99947.22;;;16.19;59.00
46756;BME280;32506;52.826;-1.192;2022-11-20T14:17:32;99948.53;;;16.06;59.49
46756;BME280;32506;52.826;-1.192;2022-11-20T14:20:00;99945.78;;;15.90;59.68
46756;BME280;32506;52.826;-1.192;2022-11-20T14:22:27;99957.34;;;15.81;59.73
46756;BME280;32506;52.826;-1.192;2022-11-20T14:25:06;99955.63;;;15.69;60.21
46756;BME280;32506;52.826;-1.192;2022-11-20T14:28:10;99949.91;;;15.55;60.24
46756;BME280;32506;52.826;-1.192;2022-11-20T14:30:44;99952.81;;;15.43;60.63
46756;BME280;32506;52.826;-1.192;2022-11-20T14:33:11;99940.09;;;15.34;60.69
46756;BME280;32506;52.826;-1.192;2022-11-20T14:35:46;99948.09;;;15.23;60.63
46756;BME280;32506;52.826;-1.192;2022-11-20T14:38:15;99943.72;;;15.12;60.89
46756;BME280;32506;52.826;-1.192;2022-11-20T14:40:42;99948.78;;;15.03;61.11
46756;BME280;32506;52.826;-1.192;2022-11-20T14:43:19;99943.88;;;14.95;61.05
46756;BME280;32506;52.826;-1.192;2022-11-20T14:45:54;99943.78;;;14.85;61.12